createdAt,value
2022-11-05T00:00:35.895Z,9.80
2022-11-05T00:03:21.460Z,9.80
2022-11-05T00:06:10.397Z,9.80
2022-11-05T00:08:56.417Z,9.70
2022-11-05T00:11:43.691Z,9.70
2022-11-05T00:14:29.410Z,9.70
2022-11-05T00:16:56.489Z,9.70
2022-11-05T00:19:23.326Z,9.70
2022-11-05T00:22:09.482Z,9.70
2022-11-05T00:24:54.706Z,9.60
2022-11-05T00:27:21.845Z,9.60
2022-11-05T00:29:50.954Z,9.60
2022-11-05T00:32:18.117Z,9.60
2022-11-05T00:34:45.052Z,9.60
2022-11-05T00:37:11.972Z,9.50
2022-11-05T00:39:38.962Z,9.50
2022-11-05T00:42:24.535Z,9.50
2022-11-05T00:45:03.388Z,9.40
2022-11-05T00:47:50.391Z,9.40
2022-11-05T00:50:18.906Z,9.40
2022-11-05T00:52:57.373Z,9.30
2022-11-05T00:55:39.806Z,9.30
2022-11-05T00:58:12.443Z,9.30
2022-11-05T01:00:41.818Z,9.20
2022-11-05T01:03:16.725Z,9.20
2022-11-05T01:05:46.818Z,9.10
2022-11-05T01:08:15.657Z,9.10
2022-11-05T01:10:44.774Z,9.10
2022-11-05T01:13:13.604Z,9.10
2022-11-05T01:15:40.979Z,9.10
2022-11-05T01:18:08.422Z,9.00
2022-11-05T01:20:37.442Z,9.00
2022-11-05T01:23:07.606Z,8.90
2022-11-05T01:25:39.221Z,8.90
2022-11-05T01:28:06.858Z,8.90
2022-11-05T01:30:34.025Z,8.90
2022-11-05T01:33:01.341Z,8.90
2022-11-05T01:35:28.735Z,8.80
2022-11-05T01:37:55.854Z,8.80
2022-11-05T01:40:24.665Z,8.80
2022-11-05T01:42:51.835Z,8.80
2022-11-05T01:45:27.453Z,8.80
2022-11-05T01:48:09.006Z,8.80
2022-11-05T01:50:47.781Z,8.70
2022-11-05T01:53:26.297Z,8.70
2022-11-05T01:56:07.561Z,8.70
2022-11-05T01:59:05.582Z,8.60
2022-11-05T02:01:35.946Z,8.60
2022-11-05T02:04:07.689Z,8.60
2022-11-05T02:06:45.939Z,8.50
2022-11-05T02:09:20.622Z,8.50
2022-11-05T02:11:49.638Z,8.50
2022-11-05T02:14:16.694Z,8.50
2022-11-05T02:17:16.478Z,8.50
2022-11-05T02:20:01.905Z,8.50
2022-11-05T02:22:48.691Z,8.50
2022-11-05T02:26:03.283Z,8.50
2022-11-05T02:28:39.747Z,8.40
2022-11-05T02:31:19.906Z,8.40
2022-11-05T02:34:11.514Z,8.40
2022-11-05T02:37:03.238Z,8.40
2022-11-05T02:39:56.380Z,8.40
2022-11-05T02:42:26.054Z,8.40
2022-11-05T02:45:26.011Z,8.30
2022-11-05T02:48:18.602Z,8.40
2022-11-05T02:51:07.064Z,8.40
2022-11-05T02:53:37.066Z,8.30
2022-11-05T02:56:09.028Z,8.30
2022-11-05T02:58:36.098Z,8.30
2022-11-05T03:01:07.018Z,8.30
2022-11-05T03:03:50.265Z,8.30
2022-11-05T03:06:31.629Z,8.40
2022-11-05T03:09:39.053Z,8.30
2022-11-05T03:12:06.125Z,8.30
2022-11-05T03:14:40.811Z,8.30
2022-11-05T03:17:41.695Z,8.20
2022-11-05T03:20:15.295Z,8.20
2022-11-05T03:23:05.126Z,8.20
2022-11-05T03:25:37.025Z,8.20
2022-11-05T03:28:07.486Z,8.10
2022-11-05T03:30:36.616Z,8.10
2022-11-05T03:33:17.924Z,8.10
2022-11-05T03:36:01.922Z,8.20
2022-11-05T03:38:33.985Z,8.10
2022-11-05T03:41:05.111Z,8.10
2022-11-05T03:43:37.023Z,8.00
2022-11-05T03:46:16.272Z,8.00
2022-11-05T03:48:49.091Z,8.10
2022-11-05T03:51:37.227Z,8.00
2022-11-05T03:54:05.653Z,8.00
2022-11-05T03:57:00.783Z,8.00
2022-11-05T03:59:29.306Z,7.90
2022-11-05T04:01:57.238Z,7.90
2022-11-05T04:04:27.189Z,7.90
2022-11-05T04:07:12.735Z,7.90
2022-11-05T04:09:58.246Z,7.90
2022-11-05T04:12:43.813Z,7.90
2022-11-05T04:15:10.916Z,7.90
2022-11-05T04:17:37.824Z,7.80
2022-11-05T04:20:24.032Z,7.80
2022-11-05T04:23:21.401Z,7.80
2022-11-05T04:25:48.305Z,7.80
2022-11-05T04:28:15.636Z,7.80
2022-11-05T04:30:44.294Z,7.70
2022-11-05T04:33:16.204Z,7.70
2022-11-05T04:35:48.611Z,7.70
2022-11-05T04:38:18.852Z,7.70
2022-11-05T04:40:48.594Z,7.70
2022-11-05T04:43:18.630Z,7.70
2022-11-05T04:45:46.287Z,7.70
2022-11-05T04:48:13.646Z,7.70
2022-11-05T04:50:40.440Z,7.70
2022-11-05T04:53:07.347Z,7.70
2022-11-05T04:55:34.086Z,7.70
2022-11-05T04:58:01.004Z,7.70
2022-11-05T05:00:27.856Z,7.60
2022-11-05T05:02:54.621Z,7.60
2022-11-05T05:05:22.761Z,7.60
2022-11-05T05:07:49.479Z,7.60
2022-11-05T05:10:16.290Z,7.60
2022-11-05T05:12:43.057Z,7.60
2022-11-05T05:15:09.838Z,7.60
2022-11-05T05:17:36.549Z,7.60
2022-11-05T05:20:21.936Z,7.60
2022-11-05T05:22:53.546Z,7.50
2022-11-05T05:25:21.063Z,7.60
2022-11-05T05:27:47.887Z,7.50
2022-11-05T05:30:14.952Z,7.50
2022-11-05T05:32:41.750Z,7.50
2022-11-05T05:35:09.386Z,7.50
2022-11-05T05:37:36.393Z,7.50
2022-11-05T05:40:03.663Z,7.40
2022-11-05T05:42:30.924Z,7.40
2022-11-05T05:44:57.884Z,7.40
2022-11-05T05:47:25.224Z,7.40
2022-11-05T05:49:52.217Z,7.40
2022-11-05T05:52:19.179Z,7.40
2022-11-05T05:54:45.974Z,7.40
2022-11-05T05:57:12.842Z,7.40
2022-11-05T05:59:39.716Z,7.30
2022-11-05T06:02:06.552Z,7.30
2022-11-05T06:04:33.701Z,7.30
2022-11-05T06:07:00.576Z,7.30
2022-11-05T06:09:27.652Z,7.30
2022-11-05T06:11:54.445Z,7.20
2022-11-05T06:14:21.182Z,7.20
2022-11-05T06:16:48.051Z,7.20
2022-11-05T06:19:14.985Z,7.20
2022-11-05T06:21:41.912Z,7.20
2022-11-05T06:24:09.092Z,7.20
2022-11-05T06:26:35.971Z,7.20
2022-11-05T06:29:02.991Z,7.20
2022-11-05T06:31:29.727Z,7.20
2022-11-05T06:33:56.601Z,7.20
2022-11-05T06:36:23.460Z,7.10
2022-11-05T06:38:50.578Z,7.20
2022-11-05T06:41:17.505Z,7.10
2022-11-05T06:43:44.369Z,7.20
2022-11-05T06:46:12.353Z,7.20
2022-11-05T06:48:39.404Z,7.20
2022-11-05T06:51:08.186Z,7.20
2022-11-05T06:53:35.639Z,7.20
2022-11-05T06:56:07.053Z,7.10
2022-11-05T06:58:34.769Z,7.20
2022-11-05T07:01:03.602Z,7.20
2022-11-05T07:03:30.635Z,7.20
2022-11-05T07:05:59.627Z,7.20
2022-11-05T07:08:30.037Z,7.20
2022-11-05T07:11:00.050Z,7.20
2022-11-05T07:13:27.464Z,7.30
2022-11-05T07:15:54.290Z,7.30
2022-11-05T07:18:21.794Z,7.30
2022-11-05T07:20:49.374Z,7.30
2022-11-05T07:23:17.059Z,7.40
2022-11-05T07:25:44.464Z,7.40
2022-11-05T07:28:11.521Z,7.40
2022-11-05T07:30:38.525Z,7.50
2022-11-05T07:33:06.075Z,7.50
2022-11-05T07:35:32.939Z,7.50
2022-11-05T07:37:59.976Z,7.60
2022-11-05T07:40:28.766Z,7.60
2022-11-05T07:42:58.296Z,7.70
2022-11-05T07:45:26.700Z,7.70
2022-11-05T07:48:01.829Z,7.80
2022-11-05T07:50:34.506Z,7.80
2022-11-05T07:53:06.765Z,7.80
2022-11-05T07:55:33.915Z,7.90
2022-11-05T07:58:01.229Z,8.00
2022-11-05T08:00:29.185Z,8.00
2022-11-05T08:03:07.278Z,8.10
2022-11-05T08:05:37.758Z,8.10
2022-11-05T08:08:09.406Z,8.10
2022-11-05T08:10:37.866Z,8.10
2022-11-05T08:13:05.907Z,8.20
2022-11-05T08:15:34.483Z,8.20
2022-11-05T08:18:07.597Z,8.30
2022-11-05T08:20:35.589Z,8.40
2022-11-05T08:23:02.521Z,8.40
2022-11-05T08:25:29.644Z,8.40
2022-11-05T08:28:05.516Z,8.50
2022-11-05T08:30:33.211Z,8.50
2022-11-05T08:33:05.334Z,8.60
2022-11-05T08:35:33.976Z,8.60
2022-11-05T08:38:03.643Z,8.70
2022-11-05T08:40:32.369Z,8.70
2022-11-05T08:43:02.766Z,8.80
2022-11-05T08:45:30.226Z,8.80
2022-11-05T08:48:02.087Z,8.80
2022-11-05T08:50:29.862Z,8.90
2022-11-05T08:52:56.864Z,8.90
2022-11-05T08:55:24.121Z,9.00
2022-11-05T08:58:02.128Z,9.00
2022-11-05T09:00:31.149Z,9.10
2022-11-05T09:03:03.051Z,9.10
2022-11-05T09:05:31.774Z,9.10
2022-11-05T09:08:01.202Z,9.20
2022-11-05T09:10:28.727Z,9.20
2022-11-05T09:12:56.274Z,9.30
2022-11-05T09:15:24.428Z,9.30
2022-11-05T09:17:51.387Z,9.30
2022-11-05T09:20:18.322Z,9.30
2022-11-05T09:22:46.310Z,9.40
2022-11-05T09:25:13.665Z,9.50
2022-11-05T09:27:40.606Z,9.50
2022-11-05T09:30:08.296Z,9.50
2022-11-05T09:32:35.054Z,9.50
2022-11-05T09:35:02.124Z,9.60
2022-11-05T09:37:29.152Z,9.50
2022-11-05T09:39:58.505Z,9.60
2022-11-05T09:42:37.731Z,9.60
2022-11-05T09:45:20.216Z,9.70
2022-11-05T09:48:01.759Z,9.70
2022-11-05T09:50:43.144Z,9.80
2022-11-05T09:53:16.457Z,9.90
2022-11-05T09:55:47.309Z,9.90
2022-11-05T09:58:24.447Z,10.00
2022-11-05T10:00:55.137Z,10.00
2022-11-05T10:03:25.551Z,10.00
2022-11-05T10:05:54.402Z,10.10
2022-11-05T10:08:25.911Z,10.10
2022-11-05T10:11:02.409Z,10.10
2022-11-05T10:13:34.256Z,10.20
2022-11-05T10:16:29.299Z,10.20
2022-11-05T10:19:24.472Z,10.30
2022-11-05T10:22:08.306Z,10.30
2022-11-05T10:24:35.616Z,10.30
2022-11-05T10:27:03.259Z,10.30
2022-11-05T10:29:30.973Z,10.30
2022-11-05T10:31:59.819Z,10.40
2022-11-05T10:34:31.443Z,10.40
2022-11-05T10:36:58.631Z,10.40
2022-11-05T10:39:27.682Z,10.40
2022-11-05T10:42:17.817Z,10.40
2022-11-05T10:45:19.999Z,10.50
2022-11-05T10:48:45.681Z,10.60
2022-11-05T10:51:13.834Z,10.60
2022-11-05T10:53:50.985Z,10.70
2022-11-05T10:56:37.309Z,10.70
2022-11-05T10:59:11.896Z,10.70
2022-11-05T11:01:39.391Z,10.60
2022-11-05T11:04:15.870Z,10.60
2022-11-05T11:06:52.925Z,10.70
2022-11-05T11:09:46.929Z,10.60
2022-11-05T11:12:31.141Z,10.60
2022-11-05T11:15:15.927Z,10.60
2022-11-05T11:17:42.924Z,10.60
2022-11-05T11:20:24.465Z,10.70
2022-11-05T11:23:16.615Z,10.80
2022-11-05T11:26:13.273Z,10.80
2022-11-05T11:28:45.784Z,10.90
2022-11-05T11:31:23.746Z,10.90
2022-11-05T11:34:03.506Z,11.00
2022-11-05T11:36:38.686Z,11.10
2022-11-05T11:39:11.654Z,11.20
2022-11-05T11:41:43.059Z,11.20
2022-11-05T11:44:18.763Z,11.30
2022-11-05T11:46:57.818Z,11.30
2022-11-05T11:49:47.424Z,11.30
2022-11-05T11:52:16.255Z,11.30
2022-11-05T11:54:43.251Z,11.30
2022-11-05T11:57:25.674Z,11.30
2022-11-05T12:00:12.386Z,11.30
2022-11-05T12:02:47.114Z,11.40
2022-11-05T12:05:23.017Z,11.40
2022-11-05T12:08:36.040Z,11.50
2022-11-05T12:11:23.786Z,11.60
2022-11-05T12:14:08.341Z,11.60
2022-11-05T12:16:58.485Z,11.70
2022-11-05T12:19:50.146Z,11.70
2022-11-05T12:23:11.591Z,11.70
2022-11-05T12:26:03.881Z,11.70
2022-11-05T12:29:18.527Z,11.70
2022-11-05T12:31:52.271Z,11.70
2022-11-05T12:34:53.075Z,11.70
2022-11-05T12:37:41.833Z,11.70
2022-11-05T12:40:12.350Z,11.70
2022-11-05T12:42:49.009Z,11.70
2022-11-05T12:45:26.166Z,11.70
2022-11-05T12:48:28.265Z,11.70
2022-11-05T12:51:12.920Z,11.80
2022-11-05T12:54:04.549Z,11.80
2022-11-05T12:56:40.797Z,11.80
2022-11-05T12:59:35.823Z,11.80
2022-11-05T13:02:07.747Z,11.90
2022-11-05T13:04:42.448Z,11.90
2022-11-05T13:07:13.753Z,12.00
2022-11-05T13:09:46.993Z,12.00
2022-11-05T13:12:18.302Z,12.10
2022-11-05T13:14:55.109Z,12.10
2022-11-05T13:17:25.894Z,12.10
2022-11-05T13:19:56.852Z,12.10
2022-11-05T13:22:37.416Z,12.00
2022-11-05T13:25:28.103Z,12.00
2022-11-05T13:28:26.816Z,12.00
2022-11-05T13:30:58.428Z,12.00
2022-11-05T13:33:35.392Z,12.00
2022-11-05T13:36:33.373Z,12.00
2022-11-05T13:39:18.196Z,12.00
2022-11-05T13:42:16.569Z,12.00
2022-11-05T13:45:06.231Z,12.00
2022-11-05T13:48:06.663Z,12.00
2022-11-05T13:50:51.822Z,12.00
2022-11-05T13:53:57.449Z,12.00
2022-11-05T13:57:03.709Z,12.00
2022-11-05T14:00:00.748Z,12.00
2022-11-05T14:03:02.324Z,11.90
2022-11-05T14:05:31.117Z,12.00
2022-11-05T14:08:16.457Z,11.90
2022-11-05T14:11:18.746Z,12.00
2022-11-05T14:13:49.725Z,12.00
2022-11-05T14:16:22.042Z,12.00
2022-11-05T14:18:55.940Z,12.00
2022-11-05T14:21:25.780Z,12.00
2022-11-05T14:23:57.759Z,12.00
2022-11-05T14:26:30.079Z,12.00
2022-11-05T14:29:03.094Z,12.00
2022-11-05T14:35:21.136Z,12.00
2022-11-05T14:37:56.298Z,12.00
2022-11-05T14:40:37.386Z,12.00
2022-11-05T14:43:08.532Z,11.90
2022-11-05T14:45:58.275Z,11.90
2022-11-05T14:49:05.207Z,11.90
2022-11-05T14:51:44.116Z,11.80
2022-11-05T14:54:22.626Z,11.70
2022-11-05T14:56:57.210Z,11.60
2022-11-05T14:59:28.215Z,11.60
2022-11-05T15:02:03.932Z,11.50
2022-11-05T15:04:33.711Z,11.50
2022-11-05T15:07:03.875Z,11.40
2022-11-05T15:09:56.100Z,11.40
2022-11-05T15:12:44.882Z,11.30
2022-11-05T15:15:30.112Z,11.20
2022-11-05T15:18:18.822Z,11.20
2022-11-05T15:20:48.863Z,11.10
2022-11-05T15:23:22.524Z,11.10
2022-11-05T15:26:04.456Z,11.00
2022-11-05T15:28:47.360Z,11.00
2022-11-05T15:31:14.005Z,10.90
2022-11-05T15:33:49.983Z,10.90
2022-11-05T15:36:28.805Z,10.90
2022-11-05T15:39:27.577Z,10.90
2022-11-05T15:41:45.943Z,10.80
2022-11-05T15:44:26.694Z,10.80
2022-11-05T15:47:13.583Z,10.80
2022-11-05T15:49:42.286Z,10.70
2022-11-05T15:52:12.158Z,10.70
2022-11-05T15:54:39.132Z,10.70
2022-11-05T15:57:13.652Z,10.70
2022-11-05T15:59:40.409Z,10.70
2022-11-05T16:02:28.673Z,10.60
2022-11-05T16:04:56.530Z,10.60
2022-11-05T16:07:23.414Z,10.60
2022-11-05T16:10:18.313Z,10.60
2022-11-05T16:12:45.235Z,10.60
2022-11-05T16:15:11.820Z,10.50
2022-11-05T16:18:00.247Z,10.50
2022-11-05T16:20:31.953Z,10.50
2022-11-05T16:23:05.006Z,10.50
2022-11-05T16:25:40.723Z,10.50
2022-11-05T16:28:30.791Z,10.50
2022-11-05T16:31:00.849Z,10.50
2022-11-05T16:33:34.185Z,10.50
2022-11-05T16:36:01.038Z,10.50
2022-11-05T16:38:27.907Z,10.50
2022-11-05T16:40:54.645Z,10.50
2022-11-05T16:43:24.322Z,10.50
2022-11-05T16:45:57.717Z,10.50
2022-11-05T16:48:25.314Z,10.50
2022-11-05T16:50:52.256Z,10.50
2022-11-05T16:53:19.252Z,10.40
2022-11-05T16:55:46.580Z,10.40
2022-11-05T16:58:25.962Z,10.50
2022-11-05T17:01:05.531Z,10.40
2022-11-05T17:03:32.461Z,10.40
2022-11-05T17:05:59.295Z,10.40
2022-11-05T17:08:26.357Z,10.40
2022-11-05T17:10:53.298Z,10.40
2022-11-05T17:13:20.496Z,10.40
2022-11-05T17:15:49.409Z,10.40
2022-11-05T17:18:18.987Z,10.40
2022-11-05T17:20:51.941Z,10.30
2022-11-05T17:23:21.794Z,10.40
2022-11-05T17:25:51.320Z,10.40
2022-11-05T17:28:19.159Z,10.40
2022-11-05T17:30:52.182Z,10.40
2022-11-05T17:33:20.963Z,10.40
2022-11-05T17:35:48.195Z,10.30
2022-11-05T17:38:15.269Z,10.30
2022-11-05T17:40:42.407Z,10.30
2022-11-05T17:43:10.321Z,10.30
2022-11-05T17:45:46.114Z,10.40
2022-11-05T17:48:13.746Z,10.30
2022-11-05T17:50:42.288Z,10.30
2022-11-05T17:53:10.302Z,10.30
2022-11-05T17:55:37.278Z,10.30
2022-11-05T17:58:04.179Z,10.30
2022-11-05T18:00:31.125Z,10.30
2022-11-05T18:02:57.923Z,10.30
2022-11-05T18:05:27.448Z,10.30
2022-11-05T18:07:55.491Z,10.20
2022-11-05T18:10:23.329Z,10.20
2022-11-05T18:12:50.334Z,10.30
2022-11-05T18:15:17.727Z,10.30
2022-11-05T18:17:46.158Z,10.30
2022-11-05T18:20:19.435Z,10.20
2022-11-05T18:22:49.523Z,10.20
2022-11-05T18:25:16.744Z,10.30
2022-11-05T18:27:44.128Z,10.30
2022-11-05T18:30:13.905Z,10.20
2022-11-05T18:32:40.975Z,10.20
2022-11-05T18:35:08.097Z,10.20
2022-11-05T18:37:36.509Z,10.20
2022-11-05T18:40:03.374Z,10.20
2022-11-05T18:42:30.140Z,10.30
2022-11-05T18:44:56.906Z,10.30
2022-11-05T18:47:23.719Z,10.30
2022-11-05T18:49:50.440Z,10.30
2022-11-05T18:52:17.246Z,10.30
2022-11-05T18:54:44.033Z,10.30
2022-11-05T18:57:10.938Z,10.30
2022-11-05T18:59:39.390Z,10.30
2022-11-05T19:02:08.000Z,10.30
2022-11-05T19:04:36.222Z,10.30
2022-11-05T19:07:05.469Z,10.30
2022-11-05T19:09:37.178Z,10.30
2022-11-05T19:12:06.306Z,10.30
2022-11-05T19:14:34.266Z,10.30
2022-11-05T19:17:01.901Z,10.30
2022-11-05T19:19:28.811Z,10.30
2022-11-05T19:21:55.634Z,10.30
2022-11-05T19:24:22.484Z,10.20
2022-11-05T19:26:49.221Z,10.30
2022-11-05T19:29:16.381Z,10.30
2022-11-05T19:31:43.326Z,10.30
2022-11-05T19:34:10.000Z,10.30
2022-11-05T19:36:36.744Z,10.20
2022-11-05T19:39:08.738Z,10.30
2022-11-05T19:41:35.798Z,10.30
2022-11-05T19:44:02.628Z,10.20
2022-11-05T19:46:30.947Z,10.30
2022-11-05T19:49:00.138Z,10.30
2022-11-05T19:51:29.961Z,10.30
2022-11-05T19:53:59.901Z,10.30
2022-11-05T19:56:29.713Z,10.30
2022-11-05T19:58:57.253Z,10.30
2022-11-05T20:01:26.227Z,10.30
2022-11-05T20:03:54.811Z,10.30
2022-11-05T20:06:31.861Z,10.30
2022-11-05T20:11:49.419Z,10.30
2022-11-05T20:14:16.270Z,10.30
2022-11-05T20:16:43.241Z,10.30
2022-11-05T20:19:13.300Z,10.30
2022-11-05T20:21:40.332Z,10.30
2022-11-05T20:24:07.789Z,10.30
2022-11-05T20:26:34.792Z,10.30
2022-11-05T20:29:01.793Z,10.30
2022-11-05T20:31:29.021Z,10.30
2022-11-05T20:33:56.334Z,10.20
2022-11-05T20:36:25.207Z,10.20
2022-11-05T20:39:02.952Z,10.20
2022-11-05T20:41:30.704Z,10.20
2022-11-05T20:43:57.633Z,10.20
2022-11-05T20:46:25.056Z,10.20
2022-11-05T20:48:55.058Z,10.30
2022-11-05T20:51:24.289Z,10.20
2022-11-05T20:53:55.353Z,10.30
2022-11-05T20:56:25.622Z,10.30
2022-11-05T20:58:53.166Z,10.30
2022-11-05T21:01:20.410Z,10.20
2022-11-05T21:03:48.385Z,10.20
2022-11-05T21:06:15.636Z,10.20
2022-11-05T21:08:43.311Z,10.20
2022-11-05T21:11:10.628Z,10.20
2022-11-05T21:13:37.641Z,10.20
2022-11-05T21:16:07.327Z,10.20
2022-11-05T21:18:36.806Z,10.20
2022-11-05T21:21:08.968Z,10.20
2022-11-05T21:23:35.912Z,10.20
2022-11-05T21:26:05.294Z,10.20
2022-11-05T21:28:34.177Z,10.20
2022-11-05T21:31:02.468Z,10.20
2022-11-05T21:33:29.914Z,10.20
2022-11-05T21:35:57.524Z,10.20
2022-11-05T21:38:24.568Z,10.20
2022-11-05T21:40:51.548Z,10.20
2022-11-05T21:43:18.420Z,10.10
2022-11-05T21:45:45.408Z,10.10
2022-11-05T21:48:15.265Z,10.10
2022-11-05T21:51:00.916Z,10.10
2022-11-05T21:53:53.966Z,10.20
2022-11-05T21:56:45.058Z,10.10
2022-11-05T21:59:32.820Z,10.10
2022-11-05T22:02:03.175Z,10.10
2022-11-05T22:04:35.912Z,10.10
2022-11-05T22:07:03.608Z,10.00
2022-11-05T22:09:30.530Z,10.00
2022-11-05T22:11:57.268Z,10.00
2022-11-05T22:14:24.359Z,9.90
2022-11-05T22:16:51.546Z,10.00
2022-11-05T22:19:19.588Z,10.00
2022-11-05T22:21:48.531Z,9.90
2022-11-05T22:24:16.169Z,10.00
2022-11-05T22:26:43.729Z,9.90
2022-11-05T22:29:10.879Z,9.90
2022-11-05T22:31:37.866Z,9.90
2022-11-05T22:34:06.046Z,9.90
2022-11-05T22:36:34.077Z,9.90
2022-11-05T22:39:01.688Z,9.90
2022-11-05T22:41:28.454Z,9.90
2022-11-05T22:43:55.747Z,9.90
2022-11-05T22:46:24.643Z,9.90
2022-11-05T22:48:51.995Z,9.90
2022-11-05T22:51:21.747Z,9.90
2022-11-05T22:53:48.728Z,9.90
2022-11-05T22:56:19.268Z,9.90
2022-11-05T22:58:47.001Z,9.90
2022-11-05T23:01:15.459Z,9.90
2022-11-05T23:03:44.295Z,9.90
2022-11-05T23:06:35.664Z,9.90
2022-11-05T23:09:23.563Z,9.90
2022-11-05T23:11:52.805Z,9.90
2022-11-05T23:14:20.026Z,9.90
2022-11-05T23:17:05.612Z,9.90
2022-11-05T23:19:51.070Z,9.90
2022-11-05T23:22:46.136Z,9.90
2022-11-05T23:25:17.167Z,9.90
2022-11-05T23:27:46.540Z,9.90
2022-11-05T23:30:16.976Z,9.90
2022-11-05T23:32:44.067Z,9.90
2022-11-05T23:35:11.618Z,9.90
2022-11-05T23:37:57.399Z,9.90
2022-11-05T23:40:27.628Z,9.90
2022-11-05T23:43:13.449Z,9.80
2022-11-05T23:45:57.471Z,9.70
2022-11-05T23:48:36.448Z,9.70
2022-11-05T23:51:09.073Z,9.70
2022-11-05T23:53:37.817Z,9.60
2022-11-05T23:56:08.122Z,9.60
2022-11-05T23:58:36.802Z,9.60
